LEZL

Sevilla Airport

Sevilla, Spain
TAF LEZL 190800Z 1909/2009 07006KT 9999 SCT030 TX22/1915Z TN13/2006Z
Issued Valid From Valid To
Oct-19 @ 08:00 UTC
(an hour ago)
Oct-19 @ 09:00 UTC
(27 minutes ago)
Oct-20 @ 09:00 UTC
(in 24 hours)
Oct-19 @ 09:00 to Oct-20 @ 09:00
TAF LEZL 190800Z 1909/2009 07006KT 9999 SCT030 TX22/1915Z TN13/2006Z
Wind Visibility Clouds
70° at 6 knots 10,000+ meters
  • Scattered at 3,000' AGL
TAF LEZL 190800Z 1909/2009 07006KT 9999 SCT030 TX22/1915Z TN13/2006Z
Issued Oct-19 @ 08:00 UTC
(an hour ago)
Valid From Oct-19 @ 09:00 UTC
(27 minutes ago)
Valid To Oct-20 @ 09:00 UTC
(in 24 hours)
Oct-19 @ 09:00 - Oct-20 @ 09:00
Wind Visibility
70° at 6 knots 10,000+ meters
Clouds
  • Scattered at 3,000' AGL